首页
METAR-TAF:

METAR-TAF

机场 :

印第安納波利斯, 印第安纳州, 美国

印第安纳波利斯国际机场

纬度: 39-43-30N, 经度: 086-16-55W, 海拔: 243米

当前天气观测

该预报发布于14分钟前的14:19 UTC
风速6节,风向东转东北
温度 12°C
湿度 94%
气压 1015 hPa
能見度: 3.2公里
阴天层高于900英尺
小毛毛雨, 轻雾

METAR: KIND 241419Z 07006KT 2SM -DZ BR OVC009 12/11 A2998 RMK AO2 DZB14 P0000 T01170106

时间: 10:33 (14:33 UTC)

预报

该预报发布于3小时和13分钟前的11:20 UTC
预报有效从24日的 12点(UTC)到 25日的 18点(UTC)
风速8节,风向东转东北
能見度: 10公里
多云层高于1000英尺
阴天层高于3000英尺
附近有阵雨
短暂存在
从 24日的 12点(UTC)到 24日的 14点(UTC)
能見度: 2.4公里
小阵雨
从 24日的 1700点(UTC)
风速6节,风向东北
能見度: 10公里
阴天层高于800英尺
附近有阵雨
从 24日的 1800点(UTC)
风速5节,风向北转东北
能見度: 10公里
阴天层高于1000英尺
附近有阵雨
几率 30%
从 24日的 21点(UTC)到 25日的 02点(UTC)
能見度: 1.6公里
阴天层高于900英尺
小阵雨
从 25日的 0200点(UTC)
风速5节,风向
能見度: 10公里
阴天层高于800英尺
几率 30%
从 25日的 02点(UTC)到 25日的 05点(UTC)
能見度: 1.6公里
阴天层高于500英尺
小阵雨
从 25日的 1300点(UTC)
风速9节,风向
能見度: 10公里
多云层高于1500英尺
从 25日的 1400点(UTC)
风速10节,风向
能見度: 10公里
散云层高于2000英尺

TAF: KIND 241120Z 2412/2518 07008KT P6SM VCSH BKN010 OVC030 TEMPO 2412/2414 1 1/2SM -SHRA FM241700 04006KT P6SM VCSH OVC008 FM241800 03005KT P6SM VCSH OVC010 PROB30 2421/2502 4SM -SHRA OVC009 FM250200 35005KT P6SM OVC008 PROB30 2502/2505 4SM -SHRA OVC005 FM251300 35009KT P6SM BKN015 FM251400 35010KT P6SM SCT020

超过4000个机场的气象观测和天气预报(METAR&TAF报告)。

可查询的气象台以黄色和红色小点在地图上表示。

将鼠标移到小点上方,可查看气象台名称。

然后点击查看天气观测和预报。

如需切换地图:点击带黑十字的绿色按钮放大地图;点击带横线的绿色按钮缩小地图;或者点击绿色箭头查看邻近地区的地图。


METAR-TAF: